sensor_id;sensor_type;location;lat;lon;timestamp;P1;durP1;ratioP1;P2;durP2;ratioP2
74658;SDS011;63186;51.204;6.536;2023-04-25T00:00:45;10.23;;;2.83;;
74658;SDS011;63186;51.204;6.536;2023-04-25T00:03:10;7.37;;;2.90;;
74658;SDS011;63186;51.204;6.536;2023-04-25T00:05:35;4.23;;;2.50;;
74658;SDS011;63186;51.204;6.536;2023-04-25T00:08:02;8.35;;;2.38;;
74658;SDS011;63186;51.204;6.536;2023-04-25T00:10:27;6.95;;;2.63;;
74658;SDS011;63186;51.204;6.536;2023-04-25T00:12:52;7.07;;;2.97;;
74658;SDS011;63186;51.204;6.536;2023-04-25T00:15:18;6.05;;;2.10;;
74658;SDS011;63186;51.204;6.536;2023-04-25T00:17:43;4.77;;;1.97;;
74658;SDS011;63186;51.204;6.536;2023-04-25T00:20:10;5.85;;;2.22;;
74658;SDS011;63186;51.204;6.536;2023-04-25T00:22:35;6.43;;;2.47;;
74658;SDS011;63186;51.204;6.536;2023-04-25T00:25:02;5.05;;;2.30;;
74658;SDS011;63186;51.204;6.536;2023-04-25T00:27:28;4.63;;;1.95;;
74658;SDS011;63186;51.204;6.536;2023-04-25T00:29:53;4.93;;;1.90;;
74658;SDS011;63186;51.204;6.536;2023-04-25T00:32:18;5.23;;;1.67;;
74658;SDS011;63186;51.204;6.536;2023-04-25T00:34:43;6.77;;;2.30;;
74658;SDS011;63186;51.204;6.536;2023-04-25T00:37:09;6.17;;;1.93;;
74658;SDS011;63186;51.204;6.536;2023-04-25T00:39:35;9.68;;;2.38;;
74658;SDS011;63186;51.204;6.536;2023-04-25T00:42:00;6.40;;;2.83;;
74658;SDS011;63186;51.204;6.536;2023-04-25T00:44:26;4.32;;;2.05;;
74658;SDS011;63186;51.204;6.536;2023-04-25T00:46:52;10.70;;;2.85;;
74658;SDS011;63186;51.204;6.536;2023-04-25T00:49:18;7.53;;;2.47;;
74658;SDS011;63186;51.204;6.536;2023-04-25T00:51:43;9.67;;;2.80;;
74658;SDS011;63186;51.204;6.536;2023-04-25T00:54:10;4.63;;;0.95;;
74658;SDS011;63186;51.204;6.536;2023-04-25T00:56:35;4.75;;;2.20;;
74658;SDS011;63186;51.204;6.536;2023-04-25T00:59:00;6.33;;;1.87;;
74658;SDS011;63186;51.204;6.536;2023-04-25T01:01:25;6.73;;;2.40;;
74658;SDS011;63186;51.204;6.536;2023-04-25T01:03:51;4.70;;;1.83;;
74658;SDS011;63186;51.204;6.536;2023-04-25T01:06:17;9.43;;;2.28;;
74658;SDS011;63186;51.204;6.536;2023-04-25T01:08:42;7.40;;;2.70;;
74658;SDS011;63186;51.204;6.536;2023-04-25T01:11:07;3.88;;;1.85;;
74658;SDS011;63186;51.204;6.536;2023-04-25T01:13:33;6.07;;;2.47;;
74658;SDS011;63186;51.204;6.536;2023-04-25T01:15:59;4.15;;;2.05;;
74658;SDS011;63186;51.204;6.536;2023-04-25T01:18:24;8.82;;;2.85;;
74658;SDS011;63186;51.204;6.536;2023-04-25T01:20:52;5.00;;;2.17;;
74658;SDS011;63186;51.204;6.536;2023-04-25T01:23:20;8.05;;;2.40;;
74658;SDS011;63186;51.204;6.536;2023-04-25T01:25:46;5.45;;;1.83;;
74658;SDS011;63186;51.204;6.536;2023-04-25T01:28:11;7.82;;;2.75;;
74658;SDS011;63186;51.204;6.536;2023-04-25T01:30:37;9.40;;;2.40;;
74658;SDS011;63186;51.204;6.536;2023-04-25T01:33:02;7.30;;;2.43;;
74658;SDS011;63186;51.204;6.536;2023-04-25T01:35:29;6.50;;;1.90;;
74658;SDS011;63186;51.204;6.536;2023-04-25T01:37:54;5.90;;;2.28;;
74658;SDS011;63186;51.204;6.536;2023-04-25T01:40:20;7.73;;;2.50;;
74658;SDS011;63186;51.204;6.536;2023-04-25T01:42:45;4.72;;;2.17;;
74658;SDS011;63186;51.204;6.536;2023-04-25T01:45:11;6.17;;;2.23;;
74658;SDS011;63186;51.204;6.536;2023-04-25T01:47:36;4.35;;;1.83;;
74658;SDS011;63186;51.204;6.536;2023-04-25T01:50:02;6.13;;;1.73;;
74658;SDS011;63186;51.204;6.536;2023-04-25T01:52:28;4.13;;;2.33;;
74658;SDS011;63186;51.204;6.536;2023-04-25T01:54:53;8.57;;;2.10;;
74658;SDS011;63186;51.204;6.536;2023-04-25T01:57:18;6.13;;;2.13;;
74658;SDS011;63186;51.204;6.536;2023-04-25T01:59:44;9.00;;;2.27;;
74658;SDS011;63186;51.204;6.536;2023-04-25T02:02:09;5.30;;;2.22;;
74658;SDS011;63186;51.204;6.536;2023-04-25T02:04:34;5.13;;;2.15;;
74658;SDS011;63186;51.204;6.536;2023-04-25T02:06:59;5.50;;;2.00;;
74658;SDS011;63186;51.204;6.536;2023-04-25T02:09:25;13.27;;;2.90;;
74658;SDS011;63186;51.204;6.536;2023-04-25T02:11:50;5.30;;;2.27;;
74658;SDS011;63186;51.204;6.536;2023-04-25T02:14:15;5.23;;;2.00;;
74658;SDS011;63186;51.204;6.536;2023-04-25T02:16:40;6.73;;;2.93;;
74658;SDS011;63186;51.204;6.536;2023-04-25T02:19:08;9.50;;;2.97;;
74658;SDS011;63186;51.204;6.536;2023-04-25T02:21:33;9.37;;;2.37;;
74658;SDS011;63186;51.204;6.536;2023-04-25T02:24:00;7.05;;;2.97;;
74658;SDS011;63186;51.204;6.536;2023-04-25T02:26:25;6.73;;;2.43;;
74658;SDS011;63186;51.204;6.536;2023-04-25T02:28:51;8.93;;;2.22;;
74658;SDS011;63186;51.204;6.536;2023-04-25T02:31:16;6.90;;;2.30;;
74658;SDS011;63186;51.204;6.536;2023-04-25T02:33:42;6.40;;;2.47;;
74658;SDS011;63186;51.204;6.536;2023-04-25T02:36:07;5.75;;;1.88;;
74658;SDS011;63186;51.204;6.536;2023-04-25T02:38:32;7.07;;;2.30;;
74658;SDS011;63186;51.204;6.536;2023-04-25T02:40:58;13.33;;;2.27;;
74658;SDS011;63186;51.204;6.536;2023-04-25T02:43:23;7.97;;;2.13;;
74658;SDS011;63186;51.204;6.536;2023-04-25T02:45:48;4.70;;;2.00;;
74658;SDS011;63186;51.204;6.536;2023-04-25T02:48:13;6.30;;;2.17;;
74658;SDS011;63186;51.204;6.536;2023-04-25T02:50:38;6.90;;;2.70;;
74658;SDS011;63186;51.204;6.536;2023-04-25T02:53:03;6.83;;;2.47;;
74658;SDS011;63186;51.204;6.536;2023-04-25T02:55:29;8.63;;;2.33;;
74658;SDS011;63186;51.204;6.536;2023-04-25T02:57:54;6.47;;;2.97;;
74658;SDS011;63186;51.204;6.536;2023-04-25T03:00:20;5.97;;;2.25;;
74658;SDS011;63186;51.204;6.536;2023-04-25T03:02:45;8.18;;;2.60;;
74658;SDS011;63186;51.204;6.536;2023-04-25T03:05:11;4.17;;;2.60;;
74658;SDS011;63186;51.204;6.536;2023-04-25T03:07:36;4.97;;;3.00;;
74658;SDS011;63186;51.204;6.536;2023-04-25T03:10:01;6.43;;;1.90;;
74658;SDS011;63186;51.204;6.536;2023-04-25T03:12:27;7.63;;;2.22;;
74658;SDS011;63186;51.204;6.536;2023-04-25T03:14:52;4.37;;;2.40;;
74658;SDS011;63186;51.204;6.536;2023-04-25T03:17:17;6.87;;;2.37;;
74658;SDS011;63186;51.204;6.536;2023-04-25T03:19:42;8.97;;;2.60;;
74658;SDS011;63186;51.204;6.536;2023-04-25T03:22:07;5.87;;;2.57;;
74658;SDS011;63186;51.204;6.536;2023-04-25T03:24:32;4.73;;;1.87;;
74658;SDS011;63186;51.204;6.536;2023-04-25T03:26:58;6.27;;;1.60;;
74658;SDS011;63186;51.204;6.536;2023-04-25T03:29:23;8.53;;;2.23;;
74658;SDS011;63186;51.204;6.536;2023-04-25T03:31:49;6.43;;;2.80;;
74658;SDS011;63186;51.204;6.536;2023-04-25T03:34:14;7.60;;;2.70;;
74658;SDS011;63186;51.204;6.536;2023-04-25T03:36:39;5.57;;;2.50;;
74658;SDS011;63186;51.204;6.536;2023-04-25T03:39:04;5.37;;;2.07;;
74658;SDS011;63186;51.204;6.536;2023-04-25T03:41:31;8.55;;;2.53;;
74658;SDS011;63186;51.204;6.536;2023-04-25T03:43:56;5.93;;;3.07;;
74658;SDS011;63186;51.204;6.536;2023-04-25T03:46:21;6.70;;;1.97;;
74658;SDS011;63186;51.204;6.536;2023-04-25T03:48:46;4.73;;;1.60;;
74658;SDS011;63186;51.204;6.536;2023-04-25T03:51:11;10.37;;;1.87;;
74658;SDS011;63186;51.204;6.536;2023-04-25T03:53:37;8.40;;;2.33;;
74658;SDS011;63186;51.204;6.536;2023-04-25T03:56:02;7.30;;;3.03;;
74658;SDS011;63186;51.204;6.536;2023-04-25T03:58:27;3.83;;;2.00;;
74658;SDS011;63186;51.204;6.536;2023-04-25T04:00:52;9.00;;;2.60;;
74658;SDS011;63186;51.204;6.536;2023-04-25T04:03:17;6.73;;;2.87;;
74658;SDS011;63186;51.204;6.536;2023-04-25T04:05:42;5.33;;;2.00;;
74658;SDS011;63186;51.204;6.536;2023-04-25T04:08:08;4.93;;;2.17;;
74658;SDS011;63186;51.204;6.536;2023-04-25T04:10:33;5.47;;;2.20;;
74658;SDS011;63186;51.204;6.536;2023-04-25T04:12:58;5.30;;;2.03;;
74658;SDS011;63186;51.204;6.536;2023-04-25T04:15:23;8.57;;;2.45;;
74658;SDS011;63186;51.204;6.536;2023-04-25T04:17:48;9.60;;;1.80;;
74658;SDS011;63186;51.204;6.536;2023-04-25T04:20:13;5.20;;;1.93;;
74658;SDS011;63186;51.204;6.536;2023-04-25T04:22:39;5.87;;;2.00;;
74658;SDS011;63186;51.204;6.536;2023-04-25T04:25:04;7.07;;;2.43;;
74658;SDS011;63186;51.204;6.536;2023-04-25T04:27:30;4.78;;;2.00;;
74658;SDS011;63186;51.204;6.536;2023-04-25T04:29:56;11.70;;;2.13;;
74658;SDS011;63186;51.204;6.536;2023-04-25T04:32:22;5.90;;;3.05;;
74658;SDS011;63186;51.204;6.536;2023-04-25T04:34:48;8.55;;;2.30;;
74658;SDS011;63186;51.204;6.536;2023-04-25T04:37:13;6.37;;;2.20;;
74658;SDS011;63186;51.204;6.536;2023-04-25T04:39:38;8.83;;;3.00;;
74658;SDS011;63186;51.204;6.536;2023-04-25T04:42:04;9.53;;;2.20;;
74658;SDS011;63186;51.204;6.536;2023-04-25T04:44:30;8.98;;;3.50;;
74658;SDS011;63186;51.204;6.536;2023-04-25T04:46:57;11.38;;;3.65;;
74658;SDS011;63186;51.204;6.536;2023-04-25T04:49:22;9.23;;;2.50;;
74658;SDS011;63186;51.204;6.536;2023-04-25T04:51:47;6.50;;;3.13;;
74658;SDS011;63186;51.204;6.536;2023-04-25T04:54:14;4.78;;;2.25;;
74658;SDS011;63186;51.204;6.536;2023-04-25T04:56:39;4.10;;;2.20;;
74658;SDS011;63186;51.204;6.536;2023-04-25T04:59:05;14.67;;;2.93;;
74658;SDS011;63186;51.204;6.536;2023-04-25T05:01:30;8.67;;;2.97;;
74658;SDS011;63186;51.204;6.536;2023-04-25T05:03:55;8.17;;;3.27;;
74658;SDS011;63186;51.204;6.536;2023-04-25T05:06:25;6.28;;;2.70;;
74658;SDS011;63186;51.204;6.536;2023-04-25T05:08:50;8.55;;;2.90;;
74658;SDS011;63186;51.204;6.536;2023-04-25T05:11:15;8.87;;;3.40;;
74658;SDS011;63186;51.204;6.536;2023-04-25T05:13:41;6.63;;;2.37;;
74658;SDS011;63186;51.204;6.536;2023-04-25T05:16:06;7.70;;;2.93;;
74658;SDS011;63186;51.204;6.536;2023-04-25T05:18:31;10.13;;;2.83;;
74658;SDS011;63186;51.204;6.536;2023-04-25T05:20:56;5.20;;;2.63;;
74658;SDS011;63186;51.204;6.536;2023-04-25T05:23:21;7.10;;;2.10;;
74658;SDS011;63186;51.204;6.536;2023-04-25T05:25:46;9.47;;;3.80;;
74658;SDS011;63186;51.204;6.536;2023-04-25T05:28:12;8.43;;;2.67;;
74658;SDS011;63186;51.204;6.536;2023-04-25T05:30:37;13.10;;;2.67;;
74658;SDS011;63186;51.204;6.536;2023-04-25T05:33:03;10.47;;;3.03;;
74658;SDS011;63186;51.204;6.536;2023-04-25T05:35:28;6.33;;;2.67;;
74658;SDS011;63186;51.204;6.536;2023-04-25T05:37:53;8.17;;;2.80;;
74658;SDS011;63186;51.204;6.536;2023-04-25T05:40:18;5.65;;;2.35;;
74658;SDS011;63186;51.204;6.536;2023-04-25T05:42:43;10.97;;;2.97;;
74658;SDS011;63186;51.204;6.536;2023-04-25T05:45:09;15.68;;;2.30;;
74658;SDS011;63186;51.204;6.536;2023-04-25T05:47:34;4.47;;;2.03;;
74658;SDS011;63186;51.204;6.536;2023-04-25T05:49:59;8.23;;;2.90;;
74658;SDS011;63186;51.204;6.536;2023-04-25T05:52:25;5.03;;;2.10;;
74658;SDS011;63186;51.204;6.536;2023-04-25T05:54:50;3.97;;;2.00;;
74658;SDS011;63186;51.204;6.536;2023-04-25T05:57:19;6.67;;;1.87;;
74658;SDS011;63186;51.204;6.536;2023-04-25T05:59:45;3.88;;;1.50;;
74658;SDS011;63186;51.204;6.536;2023-04-25T06:02:11;8.15;;;1.83;;
74658;SDS011;63186;51.204;6.536;2023-04-25T06:04:36;7.55;;;2.20;;
74658;SDS011;63186;51.204;6.536;2023-04-25T06:07:01;8.00;;;2.38;;
74658;SDS011;63186;51.204;6.536;2023-04-25T06:09:26;8.80;;;2.77;;
74658;SDS011;63186;51.204;6.536;2023-04-25T06:11:51;6.53;;;2.50;;
74658;SDS011;63186;51.204;6.536;2023-04-25T06:14:16;6.10;;;1.93;;
74658;SDS011;63186;51.204;6.536;2023-04-25T06:16:42;8.10;;;2.40;;
74658;SDS011;63186;51.204;6.536;2023-04-25T06:19:07;6.20;;;2.43;;
74658;SDS011;63186;51.204;6.536;2023-04-25T06:21:32;10.57;;;2.20;;
74658;SDS011;63186;51.204;6.536;2023-04-25T06:23:57;5.43;;;2.10;;
74658;SDS011;63186;51.204;6.536;2023-04-25T06:26:22;8.75;;;2.30;;
74658;SDS011;63186;51.204;6.536;2023-04-25T06:28:47;6.30;;;2.00;;
74658;SDS011;63186;51.204;6.536;2023-04-25T06:31:12;9.97;;;3.10;;
74658;SDS011;63186;51.204;6.536;2023-04-25T06:33:38;9.77;;;1.93;;
74658;SDS011;63186;51.204;6.536;2023-04-25T06:36:03;6.03;;;2.07;;
74658;SDS011;63186;51.204;6.536;2023-04-25T06:38:28;6.72;;;2.00;;
74658;SDS011;63186;51.204;6.536;2023-04-25T06:40:53;3.97;;;1.77;;
74658;SDS011;63186;51.204;6.536;2023-04-25T06:43:19;5.43;;;1.93;;
74658;SDS011;63186;51.204;6.536;2023-04-25T06:45:44;5.17;;;2.50;;
74658;SDS011;63186;51.204;6.536;2023-04-25T06:48:09;7.23;;;1.97;;
74658;SDS011;63186;51.204;6.536;2023-04-25T06:50:34;6.22;;;2.08;;
74658;SDS011;63186;51.204;6.536;2023-04-25T06:52:59;6.40;;;1.33;;
74658;SDS011;63186;51.204;6.536;2023-04-25T06:55:26;2.67;;;1.10;;
74658;SDS011;63186;51.204;6.536;2023-04-25T06:57:51;8.03;;;1.90;;
74658;SDS011;63186;51.204;6.536;2023-04-25T07:00:16;5.75;;;1.38;;
74658;SDS011;63186;51.204;6.536;2023-04-25T07:02:42;4.45;;;1.83;;
74658;SDS011;63186;51.204;6.536;2023-04-25T07:05:08;8.18;;;1.90;;
74658;SDS011;63186;51.204;6.536;2023-04-25T07:07:33;5.20;;;2.00;;
74658;SDS011;63186;51.204;6.536;2023-04-25T07:09:58;5.37;;;1.50;;
74658;SDS011;63186;51.204;6.536;2023-04-25T07:12:24;2.80;;;1.43;;
74658;SDS011;63186;51.204;6.536;2023-04-25T07:14:49;2.67;;;1.23;;
74658;SDS011;63186;51.204;6.536;2023-04-25T07:17:14;2.25;;;1.23;;
74658;SDS011;63186;51.204;6.536;2023-04-25T07:19:40;6.10;;;1.70;;
74658;SDS011;63186;51.204;6.536;2023-04-25T07:22:05;7.60;;;1.93;;
74658;SDS011;63186;51.204;6.536;2023-04-25T07:24:31;7.00;;;2.20;;
74658;SDS011;63186;51.204;6.536;2023-04-25T07:26:56;4.93;;;1.83;;
74658;SDS011;63186;51.204;6.536;2023-04-25T07:29:22;9.52;;;1.80;;
74658;SDS011;63186;51.204;6.536;2023-04-25T07:31:48;4.80;;;2.57;;
74658;SDS011;63186;51.204;6.536;2023-04-25T07:34:13;6.63;;;1.93;;
74658;SDS011;63186;51.204;6.536;2023-04-25T07:36:38;6.20;;;1.73;;
74658;SDS011;63186;51.204;6.536;2023-04-25T07:39:03;5.83;;;2.00;;
74658;SDS011;63186;51.204;6.536;2023-04-25T07:41:28;6.67;;;1.47;;
74658;SDS011;63186;51.204;6.536;2023-04-25T07:43:53;5.00;;;1.48;;
74658;SDS011;63186;51.204;6.536;2023-04-25T07:46:18;5.20;;;1.40;;
74658;SDS011;63186;51.204;6.536;2023-04-25T07:48:44;6.60;;;1.67;;
74658;SDS011;63186;51.204;6.536;2023-04-25T07:51:09;4.97;;;2.17;;
74658;SDS011;63186;51.204;6.536;2023-04-25T07:53:34;3.50;;;1.70;;
74658;SDS011;63186;51.204;6.536;2023-04-25T07:56:00;7.22;;;2.13;;
74658;SDS011;63186;51.204;6.536;2023-04-25T07:58:25;9.00;;;1.90;;
74658;SDS011;63186;51.204;6.536;2023-04-25T08:00:51;6.37;;;1.60;;
74658;SDS011;63186;51.204;6.536;2023-04-25T08:03:16;5.70;;;2.00;;
74658;SDS011;63186;51.204;6.536;2023-04-25T08:05:41;3.87;;;1.83;;
74658;SDS011;63186;51.204;6.536;2023-04-25T08:08:06;5.70;;;1.87;;
74658;SDS011;63186;51.204;6.536;2023-04-25T08:10:32;8.57;;;1.77;;
74658;SDS011;63186;51.204;6.536;2023-04-25T08:12:58;6.22;;;1.75;;
74658;SDS011;63186;51.204;6.536;2023-04-25T08:15:23;6.18;;;1.40;;
74658;SDS011;63186;51.204;6.536;2023-04-25T08:17:49;5.07;;;1.30;;
74658;SDS011;63186;51.204;6.536;2023-04-25T08:20:14;5.35;;;1.65;;
74658;SDS011;63186;51.204;6.536;2023-04-25T08:22:39;4.40;;;1.63;;
74658;SDS011;63186;51.204;6.536;2023-04-25T08:25:04;9.20;;;1.73;;
74658;SDS011;63186;51.204;6.536;2023-04-25T08:27:30;3.93;;;1.60;;
74658;SDS011;63186;51.204;6.536;2023-04-25T08:29:55;10.27;;;1.80;;
74658;SDS011;63186;51.204;6.536;2023-04-25T08:32:20;2.47;;;1.30;;
74658;SDS011;63186;51.204;6.536;2023-04-25T08:34:46;4.15;;;1.20;;
74658;SDS011;63186;51.204;6.536;2023-04-25T08:37:11;4.28;;;1.17;;
74658;SDS011;63186;51.204;6.536;2023-04-25T08:39:37;3.93;;;1.87;;
74658;SDS011;63186;51.204;6.536;2023-04-25T08:42:03;7.72;;;1.60;;
74658;SDS011;63186;51.204;6.536;2023-04-25T08:44:31;5.55;;;1.67;;
74658;SDS011;63186;51.204;6.536;2023-04-25T08:46:58;6.32;;;1.70;;
74658;SDS011;63186;51.204;6.536;2023-04-25T08:49:23;6.10;;;1.70;;
74658;SDS011;63186;51.204;6.536;2023-04-25T08:51:48;3.60;;;1.33;;
74658;SDS011;63186;51.204;6.536;2023-04-25T08:54:15;5.07;;;1.40;;
74658;SDS011;63186;51.204;6.536;2023-04-25T08:56:41;4.10;;;1.30;;
74658;SDS011;63186;51.204;6.536;2023-04-25T08:59:08;5.75;;;1.35;;
74658;SDS011;63186;51.204;6.536;2023-04-25T09:01:34;3.20;;;1.30;;
74658;SDS011;63186;51.204;6.536;2023-04-25T09:04:00;7.47;;;1.33;;
74658;SDS011;63186;51.204;6.536;2023-04-25T09:06:26;5.37;;;1.60;;
74658;SDS011;63186;51.204;6.536;2023-04-25T09:08:52;6.50;;;1.75;;
74658;SDS011;63186;51.204;6.536;2023-04-25T09:11:17;2.13;;;1.30;;
74658;SDS011;63186;51.204;6.536;2023-04-25T09:13:43;2.55;;;1.05;;
74658;SDS011;63186;51.204;6.536;2023-04-25T09:16:08;4.00;;;1.13;;
74658;SDS011;63186;51.204;6.536;2023-04-25T09:18:35;6.03;;;1.70;;
74658;SDS011;63186;51.204;6.536;2023-04-25T09:21:07;2.72;;;1.48;;
74658;SDS011;63186;51.204;6.536;2023-04-25T09:23:40;2.65;;;1.00;;
74658;SDS011;63186;51.204;6.536;2023-04-25T09:26:06;3.05;;;0.90;;
74658;SDS011;63186;51.204;6.536;2023-04-25T09:28:31;4.65;;;1.30;;
74658;SDS011;63186;51.204;6.536;2023-04-25T09:30:56;6.97;;;1.57;;
74658;SDS011;63186;51.204;6.536;2023-04-25T09:33:26;3.83;;;1.00;;
74658;SDS011;63186;51.204;6.536;2023-04-25T09:35:52;3.97;;;1.55;;
74658;SDS011;63186;51.204;6.536;2023-04-25T09:38:20;4.75;;;1.83;;
74658;SDS011;63186;51.204;6.536;2023-04-25T09:40:46;3.58;;;1.55;;
74658;SDS011;63186;51.204;6.536;2023-04-25T09:43:18;5.22;;;1.85;;
74658;SDS011;63186;51.204;6.536;2023-04-25T09:45:43;3.25;;;1.42;;
74658;SDS011;63186;51.204;6.536;2023-04-25T09:48:16;4.30;;;1.80;;
74658;SDS011;63186;51.204;6.536;2023-04-25T09:50:41;6.82;;;1.40;;
74658;SDS011;63186;51.204;6.536;2023-04-25T09:53:07;6.13;;;1.50;;
74658;SDS011;63186;51.204;6.536;2023-04-25T09:55:32;2.60;;;1.20;;
74658;SDS011;63186;51.204;6.536;2023-04-25T09:57:59;5.82;;;2.42;;
74658;SDS011;63186;51.204;6.536;2023-04-25T10:00:28;1.98;;;0.93;;
74658;SDS011;63186;51.204;6.536;2023-04-25T10:02:53;4.83;;;1.50;;
74658;SDS011;63186;51.204;6.536;2023-04-25T10:05:19;3.10;;;1.05;;
74658;SDS011;63186;51.204;6.536;2023-04-25T10:07:44;2.90;;;1.37;;
74658;SDS011;63186;51.204;6.536;2023-04-25T10:10:09;8.57;;;3.90;;
74658;SDS011;63186;51.204;6.536;2023-04-25T10:12:37;3.20;;;1.08;;
74658;SDS011;63186;51.204;6.536;2023-04-25T10:15:04;2.83;;;1.20;;
74658;SDS011;63186;51.204;6.536;2023-04-25T10:17:29;1.25;;;0.68;;
74658;SDS011;63186;51.204;6.536;2023-04-25T10:19:56;1.27;;;0.70;;
74658;SDS011;63186;51.204;6.536;2023-04-25T10:22:32;1.90;;;0.90;;
74658;SDS011;63186;51.204;6.536;2023-04-25T10:24:57;4.63;;;1.20;;
74658;SDS011;63186;51.204;6.536;2023-04-25T10:27:23;4.57;;;1.63;;
74658;SDS011;63186;51.204;6.536;2023-04-25T10:30:04;3.37;;;1.33;;
74658;SDS011;63186;51.204;6.536;2023-04-25T10:32:30;2.83;;;1.05;;
74658;SDS011;63186;51.204;6.536;2023-04-25T10:34:55;1.80;;;1.00;;
74658;SDS011;63186;51.204;6.536;2023-04-25T10:37:20;0.57;;;0.53;;
74658;SDS011;63186;51.204;6.536;2023-04-25T10:39:46;1.87;;;1.00;;
74658;SDS011;63186;51.204;6.536;2023-04-25T10:42:11;6.32;;;1.58;;
74658;SDS011;63186;51.204;6.536;2023-04-25T10:44:37;3.27;;;1.30;;
74658;SDS011;63186;51.204;6.536;2023-04-25T10:47:03;3.55;;;1.15;;
74658;SDS011;63186;51.204;6.536;2023-04-25T10:52:15;3.63;;;1.25;;
74658;SDS011;63186;51.204;6.536;2023-04-25T10:54:46;4.15;;;1.20;;
74658;SDS011;63186;51.204;6.536;2023-04-25T10:59:59;4.45;;;1.48;;
74658;SDS011;63186;51.204;6.536;2023-04-25T11:02:28;1.85;;;0.93;;
74658;SDS011;63186;51.204;6.536;2023-04-25T11:04:53;1.27;;;0.98;;
74658;SDS011;63186;51.204;6.536;2023-04-25T11:10:03;2.38;;;0.88;;
74658;SDS011;63186;51.204;6.536;2023-04-25T11:12:29;3.85;;;1.40;;
74658;SDS011;63186;51.204;6.536;2023-04-25T11:15:01;4.13;;;1.23;;
74658;SDS011;63186;51.204;6.536;2023-04-25T11:17:27;2.67;;;1.10;;
74658;SDS011;63186;51.204;6.536;2023-04-25T11:19:53;2.15;;;0.82;;
74658;SDS011;63186;51.204;6.536;2023-04-25T11:22:18;1.13;;;0.70;;
74658;SDS011;63186;51.204;6.536;2023-04-25T11:24:45;2.65;;;1.13;;
74658;SDS011;63186;51.204;6.536;2023-04-25T11:27:11;2.92;;;1.20;;
74658;SDS011;63186;51.204;6.536;2023-04-25T11:29:37;5.50;;;1.20;;
74658;SDS011;63186;51.204;6.536;2023-04-25T11:32:02;5.57;;;1.27;;
74658;SDS011;63186;51.204;6.536;2023-04-25T11:34:27;5.07;;;1.37;;
74658;SDS011;63186;51.204;6.536;2023-04-25T11:36:55;3.70;;;1.20;;
74658;SDS011;63186;51.204;6.536;2023-04-25T11:39:20;1.83;;;1.13;;
74658;SDS011;63186;51.204;6.536;2023-04-25T11:41:46;3.92;;;1.30;;
74658;SDS011;63186;51.204;6.536;2023-04-25T11:44:11;5.15;;;1.02;;
74658;SDS011;63186;51.204;6.536;2023-04-25T11:46:40;0.90;;;0.80;;
74658;SDS011;63186;51.204;6.536;2023-04-25T11:49:05;5.53;;;1.27;;
74658;SDS011;63186;51.204;6.536;2023-04-25T11:51:30;1.13;;;0.80;;
74658;SDS011;63186;51.204;6.536;2023-04-25T11:54:02;2.13;;;1.02;;
74658;SDS011;63186;51.204;6.536;2023-04-25T11:56:27;4.40;;;1.07;;
74658;SDS011;63186;51.204;6.536;2023-04-25T11:58:59;4.22;;;1.05;;
74658;SDS011;63186;51.204;6.536;2023-04-25T12:01:28;4.00;;;1.30;;
74658;SDS011;63186;51.204;6.536;2023-04-25T12:03:54;1.95;;;1.70;;
74658;SDS011;63186;51.204;6.536;2023-04-25T12:06:19;4.13;;;1.05;;
74658;SDS011;63186;51.204;6.536;2023-04-25T12:09:00;1.73;;;0.90;;
74658;SDS011;63186;51.204;6.536;2023-04-25T12:11:25;1.73;;;0.73;;
74658;SDS011;63186;51.204;6.536;2023-04-25T12:13:54;6.32;;;1.08;;
74658;SDS011;63186;51.204;6.536;2023-04-25T12:16:19;2.70;;;1.35;;
74658;SDS011;63186;51.204;6.536;2023-04-25T12:18:44;2.13;;;1.03;;
74658;SDS011;63186;51.204;6.536;2023-04-25T12:21:09;1.23;;;0.82;;
74658;SDS011;63186;51.204;6.536;2023-04-25T12:23:34;2.27;;;0.90;;
74658;SDS011;63186;51.204;6.536;2023-04-25T12:26:03;1.15;;;0.82;;
74658;SDS011;63186;51.204;6.536;2023-04-25T12:28:28;1.30;;;0.90;;
74658;SDS011;63186;51.204;6.536;2023-04-25T12:31:03;0.68;;;0.65;;
74658;SDS011;63186;51.204;6.536;2023-04-25T12:33:36;2.28;;;1.10;;
74658;SDS011;63186;51.204;6.536;2023-04-25T12:36:02;2.25;;;0.65;;
74658;SDS011;63186;51.204;6.536;2023-04-25T12:38:37;1.65;;;0.65;;
74658;SDS011;63186;51.204;6.536;2023-04-25T12:41:03;1.08;;;0.85;;
74658;SDS011;63186;51.204;6.536;2023-04-25T12:43:28;1.00;;;0.60;;
74658;SDS011;63186;51.204;6.536;2023-04-25T12:45:54;2.23;;;1.07;;
74658;SDS011;63186;51.204;6.536;2023-04-25T12:48:20;2.92;;;0.90;;
74658;SDS011;63186;51.204;6.536;2023-04-25T12:50:45;1.13;;;1.02;;
74658;SDS011;63186;51.204;6.536;2023-04-25T12:55:38;2.35;;;1.33;;
74658;SDS011;63186;51.204;6.536;2023-04-25T12:58:04;1.67;;;0.90;;
74658;SDS011;63186;51.204;6.536;2023-04-25T13:00:29;1.67;;;0.70;;
74658;SDS011;63186;51.204;6.536;2023-04-25T13:02:55;2.63;;;0.93;;
74658;SDS011;63186;51.204;6.536;2023-04-25T13:05:21;2.67;;;0.90;;
74658;SDS011;63186;51.204;6.536;2023-04-25T13:07:46;2.25;;;0.93;;
74658;SDS011;63186;51.204;6.536;2023-04-25T13:10:11;1.33;;;0.90;;
74658;SDS011;63186;51.204;6.536;2023-04-25T13:12:36;0.87;;;0.70;;
74658;SDS011;63186;51.204;6.536;2023-04-25T13:15:02;1.97;;;0.77;;
74658;SDS011;63186;51.204;6.536;2023-04-25T13:17:27;2.28;;;1.05;;
74658;SDS011;63186;51.204;6.536;2023-04-25T13:19:52;0.70;;;0.70;;
74658;SDS011;63186;51.204;6.536;2023-04-25T13:22:17;1.70;;;0.87;;
74658;SDS011;63186;51.204;6.536;2023-04-25T13:24:45;3.17;;;0.98;;
74658;SDS011;63186;51.204;6.536;2023-04-25T13:27:10;1.73;;;0.80;;
74658;SDS011;63186;51.204;6.536;2023-04-25T13:29:35;3.40;;;0.90;;
74658;SDS011;63186;51.204;6.536;2023-04-25T13:32:01;1.80;;;0.80;;
74658;SDS011;63186;51.204;6.536;2023-04-25T13:34:26;1.85;;;0.70;;
74658;SDS011;63186;51.204;6.536;2023-04-25T13:36:52;1.97;;;0.90;;
74658;SDS011;63186;51.204;6.536;2023-04-25T13:39:17;0.90;;;0.70;;
74658;SDS011;63186;51.204;6.536;2023-04-25T13:41:42;2.13;;;0.80;;
74658;SDS011;63186;51.204;6.536;2023-04-25T13:44:07;2.58;;;0.75;;
74658;SDS011;63186;51.204;6.536;2023-04-25T13:46:32;1.93;;;0.80;;
74658;SDS011;63186;51.204;6.536;2023-04-25T13:48:58;1.87;;;1.00;;
74658;SDS011;63186;51.204;6.536;2023-04-25T13:51:23;1.90;;;1.17;;
74658;SDS011;63186;51.204;6.536;2023-04-25T13:56:19;3.58;;;1.00;;
74658;SDS011;63186;51.204;6.536;2023-04-25T13:58:45;3.30;;;1.23;;
74658;SDS011;63186;51.204;6.536;2023-04-25T14:01:10;5.00;;;1.30;;
74658;SDS011;63186;51.204;6.536;2023-04-25T14:03:35;1.50;;;0.93;;
74658;SDS011;63186;51.204;6.536;2023-04-25T14:06:00;2.20;;;0.90;;
74658;SDS011;63186;51.204;6.536;2023-04-25T14:08:26;3.90;;;1.20;;
74658;SDS011;63186;51.204;6.536;2023-04-25T14:10:51;1.63;;;0.93;;
74658;SDS011;63186;51.204;6.536;2023-04-25T14:13:16;3.40;;;0.93;;
74658;SDS011;63186;51.204;6.536;2023-04-25T14:15:41;4.93;;;1.42;;
74658;SDS011;63186;51.204;6.536;2023-04-25T14:18:06;2.42;;;1.15;;
74658;SDS011;63186;51.204;6.536;2023-04-25T14:20:32;1.63;;;0.98;;
74658;SDS011;63186;51.204;6.536;2023-04-25T14:22:57;5.53;;;1.27;;
74658;SDS011;63186;51.204;6.536;2023-04-25T14:25:23;1.88;;;0.90;;
74658;SDS011;63186;51.204;6.536;2023-04-25T14:27:48;4.15;;;1.50;;
74658;SDS011;63186;51.204;6.536;2023-04-25T14:30:15;3.45;;;1.42;;
74658;SDS011;63186;51.204;6.536;2023-04-25T14:32:40;7.18;;;1.77;;
74658;SDS011;63186;51.204;6.536;2023-04-25T14:35:06;2.83;;;1.20;;
74658;SDS011;63186;51.204;6.536;2023-04-25T14:37:32;4.15;;;1.50;;
74658;SDS011;63186;51.204;6.536;2023-04-25T14:39:57;4.93;;;1.47;;
74658;SDS011;63186;51.204;6.536;2023-04-25T14:42:22;4.03;;;1.25;;
74658;SDS011;63186;51.204;6.536;2023-04-25T14:44:47;4.73;;;1.77;;
74658;SDS011;63186;51.204;6.536;2023-04-25T14:47:12;1.45;;;1.05;;
74658;SDS011;63186;51.204;6.536;2023-04-25T14:49:38;2.87;;;1.27;;
74658;SDS011;63186;51.204;6.536;2023-04-25T14:52:03;3.00;;;1.50;;